createdAt,value
2023-01-22T00:00:19.729Z,97233.88
2023-01-22T00:02:49.385Z,97232.19
2023-01-22T00:05:17.710Z,97232.25
2023-01-22T00:07:45.758Z,97238.59
2023-01-22T00:10:13.912Z,97236.78
2023-01-22T00:12:42.026Z,97245.66
2023-01-22T00:15:10.739Z,97243.09
2023-01-22T00:17:38.931Z,97244.06
2023-01-22T00:20:10.588Z,97244.06
2023-01-22T00:22:38.816Z,97249.44
2023-01-22T00:25:08.068Z,97251.25
2023-01-22T00:27:36.232Z,97241.38
2023-01-22T00:30:04.855Z,97261.22
2023-01-22T00:32:32.902Z,97257.66
2023-01-22T00:35:01.138Z,97264.84
2023-01-22T00:37:30.592Z,97262.16
2023-01-22T00:39:58.972Z,97251.41
2023-01-22T00:42:27.079Z,97255.94
2023-01-22T00:44:55.218Z,97248.94
2023-01-22T00:47:23.323Z,97265.91
2023-01-22T00:49:51.559Z,97271.28
2023-01-22T00:52:19.606Z,97260.72
2023-01-22T00:54:49.096Z,97266.09
2023-01-22T00:57:21.677Z,97260.72
2023-01-22T00:59:49.850Z,97252.69
2023-01-22T01:02:18.059Z,97246.44
2023-01-22T01:04:46.247Z,97256.34
2023-01-22T01:07:14.323Z,97255.47
2023-01-22T01:09:44.289Z,97256.41
2023-01-22T01:12:13.799Z,97255.56
2023-01-22T01:14:41.862Z,97254.59
2023-01-22T01:17:09.983Z,97253.72
2023-01-22T01:19:38.058Z,97255.56
2023-01-22T01:22:08.237Z,97260.06
2023-01-22T01:24:37.170Z,97264.56
2023-01-22T01:27:05.233Z,97266.47
2023-01-22T01:29:34.735Z,97268.22
2023-01-22T01:32:02.949Z,97265.53
2023-01-22T01:34:31.184Z,97265.59
2023-01-22T01:36:59.253Z,97264.75
2023-01-22T01:39:27.362Z,97267.44
2023-01-22T01:41:55.528Z,97273.66
2023-01-22T01:44:24.207Z,97276.31
2023-01-22T01:46:57.140Z,97272.03
2023-01-22T01:49:28.399Z,97275.50
2023-01-22T01:51:58.092Z,97259.56
2023-01-22T01:54:26.162Z,97259.56
2023-01-22T01:56:55.906Z,97253.34
2023-01-22T01:59:24.105Z,97257.88
2023-01-22T02:01:56.026Z,97254.31
2023-01-22T02:04:24.424Z,97254.31
2023-01-22T02:06:52.565Z,97266.84
2023-01-22T02:09:20.786Z,97266.84
2023-01-22T02:11:49.749Z,97274.91
2023-01-22T02:14:19.759Z,97275.88
2023-01-22T02:16:47.885Z,97276.69
2023-01-22T02:19:18.320Z,97270.50
2023-01-22T02:21:48.530Z,97279.50
2023-01-22T02:24:17.588Z,97276.81
2023-01-22T02:26:46.370Z,97280.47
2023-01-22T02:29:18.761Z,97284.84
2023-01-22T02:31:46.966Z,97278.63
2023-01-22T02:34:15.229Z,97277.78
2023-01-22T02:36:45.791Z,97275.09
2023-01-22T02:39:15.327Z,97288.50
2023-01-22T02:41:43.401Z,97287.63
2023-01-22T02:44:13.326Z,97292.13
2023-01-22T02:46:41.523Z,97284.09
2023-01-22T02:49:09.647Z,97293.94
2023-01-22T02:51:37.736Z,97292.13
2023-01-22T02:54:05.969Z,97285.91
2023-01-22T02:56:36.448Z,97293.09
2023-01-22T02:59:04.881Z,97294.03
2023-01-22T03:01:33.244Z,97292.22
2023-01-22T03:04:11.050Z,97295.84
2023-01-22T03:06:40.067Z,97299.41
2023-01-22T03:09:09.040Z,97297.69
2023-01-22T03:11:40.558Z,97296.81
2023-01-22T03:14:32.950Z,97295.97
2023-01-22T03:17:18.753Z,97300.44
2023-01-22T03:20:04.245Z,97295.97
2023-01-22T03:22:32.953Z,97295.00
2023-01-22T03:25:01.551Z,97295.97
2023-01-22T03:27:32.297Z,97296.94
2023-01-22T03:30:00.496Z,97297.75
2023-01-22T03:32:32.930Z,97290.69
2023-01-22T03:35:01.924Z,97290.69
2023-01-22T03:37:41.078Z,97286.28
2023-01-22T03:40:11.081Z,97289.81
2023-01-22T03:42:42.150Z,97287.13
2023-01-22T03:45:11.148Z,97288.94
2023-01-22T03:47:39.303Z,97286.28
2023-01-22T03:50:21.954Z,97283.53
2023-01-22T03:52:50.140Z,97288.13
2023-01-22T03:55:18.275Z,97283.59
2023-01-22T03:57:47.941Z,97281.88
2023-01-22T04:00:16.799Z,97285.44
2023-01-22T04:02:45.123Z,97281.88
2023-01-22T04:05:21.336Z,97281.00
2023-01-22T04:07:50.600Z,97285.59
2023-01-22T04:10:21.433Z,97290.03
2023-01-22T04:12:52.492Z,97290.88
2023-01-22T04:15:23.175Z,97286.59
2023-01-22T04:17:52.667Z,97292.88
2023-01-22T04:20:34.055Z,97292.88
2023-01-22T04:23:32.312Z,97285.81
2023-01-22T04:26:03.061Z,97292.00
2023-01-22T04:28:32.851Z,97289.34
2023-01-22T04:31:04.138Z,97291.19
2023-01-22T04:33:42.105Z,97296.53
2023-01-22T04:36:16.177Z,97301.13
2023-01-22T04:38:45.177Z,97287.72
2023-01-22T04:41:13.259Z,97291.34
2023-01-22T04:43:42.787Z,97290.41
2023-01-22T04:46:11.018Z,97286.84
2023-01-22T04:48:39.207Z,97287.78
2023-01-22T04:51:07.531Z,97282.44
2023-01-22T04:53:35.778Z,97285.13
2023-01-22T04:56:03.923Z,97291.44
2023-01-22T04:58:32.092Z,97289.63
2023-01-22T05:01:02.917Z,97295.06
2023-01-22T05:03:31.064Z,97303.97
2023-01-22T05:05:59.103Z,97302.16
2023-01-22T05:08:27.299Z,97306.66
2023-01-22T05:10:55.371Z,97307.63
2023-01-22T05:13:30.480Z,97302.28
2023-01-22T05:15:58.629Z,97315.66
2023-01-22T05:18:28.772Z,97313.00
2023-01-22T05:20:56.927Z,97316.59
2023-01-22T05:23:28.651Z,97314.91
2023-01-22T05:25:57.239Z,97317.56
2023-01-22T05:28:40.347Z,97316.72
2023-01-22T05:31:34.967Z,97327.44
2023-01-22T05:34:07.335Z,97325.69
2023-01-22T05:36:35.564Z,97324.84
2023-01-22T05:39:12.840Z,97326.66
2023-01-22T05:41:41.368Z,97320.44
2023-01-22T05:44:11.831Z,97328.47
2023-01-22T05:49:24.319Z,97323.09
2023-01-22T05:54:23.795Z,97321.41
2023-01-22T05:56:52.811Z,97319.66
2023-01-22T05:59:21.073Z,97324.09
2023-01-22T06:01:55.723Z,97325.00
2023-01-22T06:04:25.207Z,97323.31
2023-01-22T06:06:53.460Z,97321.47
2023-01-22T06:09:23.963Z,97325.13
2023-01-22T06:11:52.184Z,97328.66
2023-01-22T06:14:20.575Z,97326.00
2023-01-22T06:16:50.033Z,97330.38
2023-01-22T06:19:36.131Z,97336.50
2023-01-22T06:22:05.732Z,97335.56
2023-01-22T06:24:49.463Z,97332.88
2023-01-22T06:27:18.983Z,97332.03
2023-01-22T06:29:57.038Z,97336.41
2023-01-22T06:32:25.232Z,97347.13
2023-01-22T06:34:55.128Z,97349.75
2023-01-22T06:37:23.985Z,97346.28
2023-01-22T06:39:53.448Z,97339.09
2023-01-22T06:42:37.936Z,97347.06
2023-01-22T06:45:07.859Z,97346.19
2023-01-22T06:47:37.944Z,97355.09
2023-01-22T06:50:08.431Z,97360.47
2023-01-22T06:52:36.575Z,97359.59
2023-01-22T06:55:05.006Z,97363.13
2023-01-22T06:57:33.272Z,97363.03
2023-01-22T07:00:01.380Z,97363.97
2023-01-22T07:02:29.990Z,97359.50
2023-01-22T07:04:58.382Z,97365.72
2023-01-22T07:07:27.911Z,97371.09
2023-01-22T07:09:55.985Z,97372.88
2023-01-22T07:12:24.347Z,97372.78
2023-01-22T07:14:52.418Z,97371.94
2023-01-22T07:17:20.544Z,97378.16
2023-01-22T07:19:48.625Z,97386.19
2023-01-22T07:22:16.760Z,97389.75
2023-01-22T07:24:46.241Z,97391.56
2023-01-22T07:27:14.426Z,97392.41
2023-01-22T07:29:42.741Z,97388.81
2023-01-22T07:32:11.012Z,97390.63
2023-01-22T07:34:39.083Z,97392.16
2023-01-22T07:37:07.227Z,97387.56
2023-01-22T07:39:35.344Z,97398.09
2023-01-22T07:42:04.979Z,97398.03
2023-01-22T07:44:33.196Z,97397.06
2023-01-22T07:47:02.509Z,97405.97
2023-01-22T07:49:30.646Z,97404.06
2023-01-22T07:51:58.697Z,97403.97
2023-01-22T07:54:27.755Z,97410.09
2023-01-22T07:56:55.850Z,97419.88
2023-01-22T07:59:25.492Z,97419.88
2023-01-22T08:01:55.490Z,97414.50
2023-01-22T08:04:23.624Z,97413.66
2023-01-22T08:06:51.703Z,97415.44
2023-01-22T08:09:24.928Z,97418.13
2023-01-22T08:11:53.492Z,97422.56
2023-01-22T08:14:21.560Z,97425.13
2023-01-22T08:16:51.057Z,97429.63
2023-01-22T08:19:19.146Z,97429.47
2023-01-22T08:21:47.354Z,97432.97
2023-01-22T08:24:15.435Z,97432.91
2023-01-22T08:26:45.439Z,97435.50
2023-01-22T08:29:13.648Z,97441.72
2023-01-22T08:31:41.804Z,97436.38
2023-01-22T08:34:11.491Z,97444.41
2023-01-22T08:36:39.623Z,97441.72
2023-01-22T08:39:07.758Z,97450.72
2023-01-22T08:41:35.851Z,97448.03
2023-01-22T08:44:04.058Z,97447.16
2023-01-22T08:46:32.357Z,97452.53
2023-01-22T08:49:00.520Z,97449.84
2023-01-22T08:51:31.483Z,97450.72
2023-01-22T08:54:00.657Z,97451.69
2023-01-22T08:56:29.673Z,97452.34
2023-01-22T08:59:00.226Z,97458.50
2023-01-22T09:01:28.456Z,97459.28
2023-01-22T09:03:56.496Z,97460.13
2023-01-22T09:06:25.127Z,97473.25
2023-01-22T09:08:54.550Z,97472.97
2023-01-22T09:11:22.699Z,97483.53
2023-01-22T09:13:51.211Z,97486.03
2023-01-22T09:16:19.421Z,97482.31
2023-01-22T09:18:47.608Z,97490.25
2023-01-22T09:21:15.731Z,97488.34
2023-01-22T09:23:43.776Z,97494.50
2023-01-22T09:26:13.300Z,97491.66
2023-01-22T09:28:41.445Z,97502.28
2023-01-22T09:31:10.299Z,97512.94
2023-01-22T09:33:38.439Z,97513.91
2023-01-22T09:36:10.544Z,97514.66
2023-01-22T09:38:38.720Z,97521.75
2023-01-22T09:41:09.090Z,97520.72
2023-01-22T09:43:39.290Z,97520.72
2023-01-22T09:46:10.056Z,97520.59
2023-01-22T09:48:41.454Z,97519.63
2023-01-22T09:51:11.305Z,97522.31
2023-01-22T09:53:39.447Z,97525.00
2023-01-22T09:56:08.190Z,97532.13
2023-01-22T09:58:36.281Z,97529.44
2023-01-22T10:01:06.347Z,97525.00
2023-01-22T10:03:37.169Z,97533.94
2023-01-22T10:06:08.203Z,97534.03
2023-01-22T10:08:40.051Z,97528.66
2023-01-22T10:11:09.788Z,97536.72
2023-01-22T10:13:38.471Z,97533.16
2023-01-22T10:16:08.645Z,97534.97
2023-01-22T10:18:40.894Z,97528.66
2023-01-22T10:21:16.139Z,97533.25
2023-01-22T10:23:44.257Z,97539.50
2023-01-22T10:26:15.312Z,97527.88
2023-01-22T10:28:45.476Z,97541.31
2023-01-22T10:31:25.216Z,97538.63
2023-01-22T10:33:59.773Z,97536.81
2023-01-22T10:36:28.075Z,97537.66
2023-01-22T10:39:06.608Z,97537.66
2023-01-22T10:41:34.877Z,97534.19
2023-01-22T10:44:10.789Z,97540.31
2023-01-22T10:46:40.451Z,97542.19
2023-01-22T10:49:15.189Z,97540.31
2023-01-22T10:51:44.382Z,97548.38
2023-01-22T10:54:23.521Z,97538.63
2023-01-22T10:56:51.604Z,97543.00
2023-01-22T10:59:23.154Z,97539.38
2023-01-22T11:01:57.760Z,97538.53
2023-01-22T11:04:28.424Z,97539.38
2023-01-22T11:06:58.390Z,97540.31
2023-01-22T11:09:29.110Z,97542.94
2023-01-22T11:12:01.011Z,97545.69
2023-01-22T11:14:30.476Z,97543.88
2023-01-22T11:17:02.707Z,97544.75
2023-01-22T11:19:43.176Z,97543.00
2023-01-22T11:22:24.314Z,97546.56
2023-01-22T11:24:52.626Z,97549.25
2023-01-22T11:27:31.346Z,97547.44
2023-01-22T11:30:38.295Z,97538.53
2023-01-22T11:33:13.846Z,97550.13
2023-01-22T11:35:45.362Z,97549.25
2023-01-22T11:38:18.255Z,97552.81
2023-01-22T11:41:01.012Z,97553.75
2023-01-22T11:43:45.126Z,97552.81
2023-01-22T11:46:24.568Z,97552.81
2023-01-22T11:49:00.929Z,97550.13
2023-01-22T11:51:32.799Z,97548.31
2023-01-22T11:54:23.616Z,97551.84
2023-01-22T11:57:08.274Z,97551.84
2023-01-22T11:59:43.060Z,97554.53
2023-01-22T12:02:23.734Z,97547.44
2023-01-22T12:05:09.520Z,97549.25
2023-01-22T12:08:00.241Z,97552.81
2023-01-22T12:10:47.470Z,97549.16
2023-01-22T12:13:26.742Z,97550.03
2023-01-22T12:15:57.772Z,97551.84
2023-01-22T12:18:42.239Z,97557.19
2023-01-22T12:21:15.296Z,97556.25
2023-01-22T12:23:45.477Z,97551.84
2023-01-22T12:26:16.033Z,97554.53
2023-01-22T12:28:46.075Z,97551.84
2023-01-22T12:31:16.443Z,97555.38
2023-01-22T12:33:46.177Z,97554.53
2023-01-22T12:36:18.867Z,97549.16
2023-01-22T12:38:50.747Z,97555.28
2023-01-22T12:41:44.401Z,97555.28
2023-01-22T12:44:22.750Z,97555.28
2023-01-22T12:46:58.419Z,97550.03
2023-01-22T12:49:27.256Z,97566.03
2023-01-22T12:51:57.278Z,97566.03
2023-01-22T12:54:30.207Z,97561.53
2023-01-22T12:57:11.535Z,97563.34
2023-01-22T12:59:44.767Z,97560.66
2023-01-22T13:02:35.876Z,97561.53
2023-01-22T13:05:11.945Z,97565.09
2023-01-22T13:07:42.101Z,97566.91
2023-01-22T13:10:24.503Z,97564.22
2023-01-22T13:12:53.891Z,97570.44
2023-01-22T13:15:23.354Z,97565.97
2023-01-22T13:18:06.428Z,97566.91
2023-01-22T13:20:36.209Z,97575.81
2023-01-22T13:23:06.359Z,97572.16
2023-01-22T13:25:34.606Z,97572.25
2023-01-22T13:28:03.071Z,97575.81
2023-01-22T13:30:32.006Z,97575.81
2023-01-22T13:33:06.994Z,97588.28
2023-01-22T13:35:36.984Z,97583.88
2023-01-22T13:38:06.486Z,97588.38
2023-01-22T13:40:46.254Z,97597.19
2023-01-22T13:43:19.249Z,97591.72
2023-01-22T13:45:47.416Z,97590.78
2023-01-22T13:48:16.771Z,97592.69
2023-01-22T13:50:47.648Z,97587.31
2023-01-22T13:53:25.060Z,97591.91
2023-01-22T13:55:53.242Z,97592.78
2023-01-22T13:58:46.467Z,97596.41
2023-01-22T14:01:27.667Z,97596.41
2023-01-22T14:03:59.582Z,97607.25
2023-01-22T14:06:27.768Z,97606.28
2023-01-22T14:08:58.092Z,97614.31
2023-01-22T14:11:26.238Z,97622.38
2023-01-22T14:13:54.511Z,97616.16
2023-01-22T14:16:22.743Z,97612.53
2023-01-22T14:18:50.885Z,97611.59
2023-01-22T14:21:19.068Z,97617.00
2023-01-22T14:23:47.225Z,97617.00
2023-01-22T14:26:16.711Z,97618.84
2023-01-22T14:28:44.872Z,97623.34
2023-01-22T14:31:12.974Z,97627.75
2023-01-22T14:33:41.103Z,97633.13
2023-01-22T14:36:09.853Z,97633.13
2023-01-22T14:38:37.999Z,97626.81
2023-01-22T14:41:06.421Z,97632.94
2023-01-22T14:43:36.093Z,97644.47
2023-01-22T14:46:08.149Z,97652.41
2023-01-22T14:48:36.445Z,97654.22
2023-01-22T14:51:09.359Z,97650.59
2023-01-22T14:53:38.173Z,97655.97
2023-01-22T14:56:06.764Z,97655.00
2023-01-22T14:58:36.614Z,97651.28
2023-01-22T15:01:15.481Z,97655.72
2023-01-22T15:03:43.746Z,97657.41
2023-01-22T15:06:11.855Z,97651.13
2023-01-22T15:08:40.184Z,97644.88
2023-01-22T15:11:08.283Z,97653.81
2023-01-22T15:13:37.843Z,97650.16
2023-01-22T15:16:06.733Z,97660.00
2023-01-22T15:18:35.160Z,97670.84
2023-01-22T15:21:04.069Z,97670.06
2023-01-22T15:23:32.224Z,97677.25
2023-01-22T15:26:00.531Z,97684.47
2023-01-22T15:28:28.706Z,97673.72
2023-01-22T15:31:01.105Z,97671.97
2023-01-22T15:33:29.350Z,97670.25
2023-01-22T15:35:57.509Z,97674.66
2023-01-22T15:38:25.638Z,97671.09
2023-01-22T15:41:03.459Z,97670.25
2023-01-22T15:43:31.610Z,97678.38
2023-01-22T15:46:01.142Z,97683.75
2023-01-22T15:48:29.343Z,97672.16
2023-01-22T15:51:07.520Z,97683.75
2023-01-22T15:53:35.694Z,97673.97
2023-01-22T15:56:04.118Z,97678.38
2023-01-22T15:58:32.619Z,97671.19
2023-01-22T16:01:02.167Z,97674.75
2023-01-22T16:03:30.319Z,97685.50
2023-01-22T16:06:08.879Z,97686.38
2023-01-22T16:08:37.045Z,97697.94
2023-01-22T16:11:05.465Z,97697.78
2023-01-22T16:13:33.624Z,97716.47
2023-01-22T16:16:04.186Z,97711.28
2023-01-22T16:18:33.080Z,97702.47
2023-01-22T16:21:01.974Z,97709.66
2023-01-22T16:23:30.846Z,97716.72
2023-01-22T16:25:59.079Z,97712.34
2023-01-22T16:28:27.188Z,97716.81
2023-01-22T16:30:55.479Z,97725.75
2023-01-22T16:33:27.052Z,97740.03
2023-01-22T16:36:00.059Z,97738.28
2023-01-22T16:38:28.616Z,97741.84
2023-01-22T16:40:57.228Z,97744.63
2023-01-22T16:43:25.400Z,97745.47
2023-01-22T16:45:53.573Z,97750.78
2023-01-22T16:48:21.649Z,97752.59
2023-01-22T16:50:51.271Z,97755.28
2023-01-22T16:53:19.369Z,97748.00
2023-01-22T16:55:47.471Z,97753.19
2023-01-22T16:58:15.582Z,97756.72
2023-01-22T17:00:43.774Z,97764.69
2023-01-22T17:03:11.937Z,97758.47
2023-01-22T17:05:40.155Z,97764.69
2023-01-22T17:08:09.662Z,97766.53
2023-01-22T17:10:38.029Z,97766.53
2023-01-22T17:13:06.681Z,97771.81
2023-01-22T17:15:34.980Z,97775.44
2023-01-22T17:18:03.250Z,97772.75
2023-01-22T17:20:31.463Z,97776.31
2023-01-22T17:22:59.594Z,97780.78
2023-01-22T17:25:29.144Z,97790.69
2023-01-22T17:27:57.334Z,97790.59
2023-01-22T17:30:25.472Z,97795.97
2023-01-22T17:32:53.611Z,97805.84
2023-01-22T17:35:22.060Z,97811.19
2023-01-22T17:37:50.315Z,97819.25
2023-01-22T17:40:18.726Z,97824.53
2023-01-22T17:42:48.348Z,97823.69
2023-01-22T17:45:16.643Z,97830.75
2023-01-22T17:47:45.524Z,97826.38
2023-01-22T17:50:14.001Z,97828.19
2023-01-22T17:52:42.142Z,97830.88
2023-01-22T17:55:11.183Z,97835.25
2023-01-22T17:57:41.378Z,97839.69
2023-01-22T18:00:12.660Z,97837.94
2023-01-22T18:02:40.890Z,97853.91
2023-01-22T18:05:10.462Z,97858.50
2023-01-22T18:07:38.679Z,97876.31
2023-01-22T18:10:07.273Z,97876.31
2023-01-22T18:12:35.387Z,97882.56
2023-01-22T18:15:04.026Z,97871.03
2023-01-22T18:17:33.563Z,97869.13
2023-01-22T18:20:03.399Z,97866.34
2023-01-22T18:22:31.635Z,97855.91
2023-01-22T18:24:59.758Z,97852.44
2023-01-22T18:27:27.920Z,97861.25
2023-01-22T18:29:56.048Z,97861.06
2023-01-22T18:32:24.418Z,97866.34
2023-01-22T18:34:53.858Z,97870.78
2023-01-22T18:37:21.975Z,97883.09
2023-01-22T18:39:50.029Z,97884.81
2023-01-22T18:42:18.179Z,97905.25
2023-01-22T18:44:46.451Z,97901.69
2023-01-22T18:47:15.579Z,97898.94
2023-01-22T18:49:43.888Z,97899.78
2023-01-22T18:52:13.434Z,97901.53
2023-01-22T18:54:41.584Z,97906.91
2023-01-22T18:57:09.631Z,97914.97
2023-01-22T18:59:37.811Z,97897.97
2023-01-22T19:02:05.956Z,97894.44
2023-01-22T19:04:34.444Z,97895.31
2023-01-22T19:07:02.548Z,97889.06
2023-01-22T19:09:32.102Z,97881.88
2023-01-22T19:12:00.309Z,97875.56
2023-01-22T19:14:28.423Z,97872.88
2023-01-22T19:16:56.645Z,97882.56
2023-01-22T19:19:24.801Z,97891.50
2023-01-22T19:21:54.299Z,97898.53
2023-01-22T19:24:25.078Z,97895.84
2023-01-22T19:26:55.183Z,97886.81
2023-01-22T19:29:24.645Z,97892.97
2023-01-22T19:31:53.983Z,97893.84
2023-01-22T19:34:24.817Z,97895.66
2023-01-22T19:36:53.615Z,97897.41
2023-01-22T19:39:22.504Z,97911.75
2023-01-22T19:41:50.702Z,97915.41
2023-01-22T19:44:20.205Z,97927.97
2023-01-22T19:46:48.477Z,97927.97
2023-01-22T19:49:16.634Z,97933.53
2023-01-22T19:51:44.801Z,97931.69
2023-01-22T19:54:12.941Z,97928.16
2023-01-22T19:56:43.271Z,97921.03
2023-01-22T19:59:14.549Z,97916.63
2023-01-22T20:01:45.581Z,97906.81
2023-01-22T20:04:20.407Z,97909.50
2023-01-22T20:06:50.945Z,97906.03
2023-01-22T20:09:21.725Z,97913.22
2023-01-22T20:11:53.479Z,97924.94
2023-01-22T20:14:22.704Z,97928.53
2023-01-22T20:16:52.139Z,97938.44
2023-01-22T20:19:20.305Z,97943.88
2023-01-22T20:21:48.378Z,97950.22
2023-01-22T20:24:16.691Z,97947.53
2023-01-22T20:26:44.768Z,97936.88
2023-01-22T20:29:13.291Z,97931.56
2023-01-22T20:31:41.519Z,97931.66
2023-01-22T20:34:11.006Z,97938.84
2023-01-22T20:36:39.072Z,97932.63
2023-01-22T20:39:07.182Z,97926.38
2023-01-22T20:41:35.402Z,97929.16
2023-01-22T20:44:03.607Z,97924.72
2023-01-22T20:46:31.827Z,97937.28
2023-01-22T20:49:00.011Z,97935.47
2023-01-22T20:51:29.788Z,97940.91
2023-01-22T20:53:58.069Z,97940.03
2023-01-22T20:56:28.441Z,97937.34
2023-01-22T20:58:57.228Z,97949.91
2023-01-22T21:01:25.353Z,97940.03
2023-01-22T21:03:53.857Z,97947.31
2023-01-22T21:06:22.013Z,97949.13
2023-01-22T21:08:52.871Z,97964.28
2023-01-22T21:11:22.035Z,97956.34
2023-01-22T21:13:51.347Z,97955.47
2023-01-22T21:16:23.112Z,97959.06
2023-01-22T21:18:51.387Z,97958.22
2023-01-22T21:21:20.097Z,97959.06
2023-01-22T21:23:48.418Z,97959.16
2023-01-22T21:26:19.287Z,97959.25
2023-01-22T21:28:48.331Z,97964.63
2023-01-22T21:31:17.340Z,97971.78
2023-01-22T21:33:45.703Z,97979.84
2023-01-22T21:36:14.580Z,97975.34
2023-01-22T21:38:42.758Z,97979.84
2023-01-22T21:41:12.488Z,97977.16
2023-01-22T21:44:00.755Z,97984.34
2023-01-22T21:46:29.912Z,97988.88
2023-01-22T21:48:58.940Z,97988.94
2023-01-22T21:51:27.243Z,97996.97
2023-01-22T21:53:55.801Z,98002.34
2023-01-22T21:56:24.048Z,98001.41
2023-01-22T21:58:53.467Z,98006.00
2023-01-22T22:01:22.220Z,98012.25
2023-01-22T22:03:50.346Z,98007.72
2023-01-22T22:06:18.460Z,98003.31
2023-01-22T22:08:46.545Z,97998.88
2023-01-22T22:11:14.743Z,98002.44
2023-01-22T22:13:42.824Z,98009.59
2023-01-22T22:16:13.052Z,98012.38
2023-01-22T22:18:41.346Z,98009.69
2023-01-22T22:21:09.647Z,98018.63
2023-01-22T22:23:37.838Z,98016.03
2023-01-22T22:26:06.321Z,98020.53
2023-01-22T22:28:34.607Z,98024.13
2023-01-22T22:31:06.427Z,98020.59
2023-01-22T22:33:36.047Z,98016.16
2023-01-22T22:36:04.117Z,98009.94
2023-01-22T22:38:32.195Z,98013.56
2023-01-22T22:41:01.713Z,98010.09
2023-01-22T22:43:33.200Z,98013.75
2023-01-22T22:46:05.672Z,98010.19
2023-01-22T22:48:35.268Z,98006.53
2023-01-22T22:51:10.761Z,98007.50
2023-01-22T22:53:38.915Z,98012.97
2023-01-22T22:56:07.890Z,98017.38
2023-01-22T22:58:36.019Z,98021.84
2023-01-22T23:01:07.685Z,98024.63
2023-01-22T23:03:37.857Z,98012.19
2023-01-22T23:06:08.571Z,98016.66
2023-01-22T23:08:37.323Z,98019.44
2023-01-22T23:11:06.093Z,98008.75
2023-01-22T23:13:34.333Z,98014.91
2023-01-22T23:16:02.783Z,98004.28
2023-01-22T23:18:31.088Z,98007.00
2023-01-22T23:21:04.279Z,98004.41
2023-01-22T23:23:32.607Z,98001.72
2023-01-22T23:26:00.998Z,98007.16
2023-01-22T23:28:29.275Z,98012.50
2023-01-22T23:30:57.651Z,98009.91
2023-01-22T23:33:26.080Z,98008.09
2023-01-22T23:35:56.959Z,98004.56
2023-01-22T23:38:26.692Z,98000.16
2023-01-22T23:40:57.997Z,97999.19
2023-01-22T23:43:26.319Z,98000.16
2023-01-22T23:45:54.683Z,97995.63
2023-01-22T23:48:22.973Z,97994.84
2023-01-22T23:50:52.130Z,98002.03
2023-01-22T23:53:20.188Z,98004.72
2023-01-22T23:55:49.895Z,97993.22
2023-01-22T23:58:18.024Z,98000.38
